Latest Weather Observations for Ivanhoe Airport

IDN60801

Issued at 8:13 pm EST Friday 1 July 2022 (issued every 10 minutes, with the page automatically refreshed every 10 minutes)

About weather observations | Map of weather stations | Latest weather observations for NSW | Other Formats
Station Details ID: 049000 Name: IVANHOE AERODROME AWS Lat: -32.88 Lon: 144.31 Height: 100.0 m
Data from the previous 72 hours. | See also: Recent months at Ivanhoe Airport
Date/Time
EST
Temp
°C
App
Temp
°C
Dew
Point
°C
Rel
Hum
%
Delta-T
°C
Wind Press
QNH
hPa
Press
MSL
hPa
Rain since
9am
mm
Dir  Spd
km/h
Gust
km/h
Spd
kts
Gust
kts
01/08:00pm 8.2 4.4 5.8 85 1.1 SSW 15 20 8 11 1027.1 1027.2 0.0
01/07:30pm 8.1 4.6 5.6 84 1.1 SW 13 17 7 9 1027.1 1027.2 0.0
01/07:00pm 8.8 5.4 5.7 81 1.4 SSW 13 17 7 9 1026.9 1027.0 0.0
01/06:30pm 9.5 5.7 5.9 78 1.7 SSW 15 17 8 9 1026.3 1026.5 0.0
01/06:00pm 10.4 7.0 5.8 73 2.1 S 13 15 7 8 1025.9 1026.1 0.0
01/05:30pm 11.7 8.3 6.0 68 2.7 S 13 20 7 11 1025.7 1025.9 0.0
01/05:00pm 13.2 9.5 6.1 62 3.4 S 15 22 8 12 1025.6 1025.8 0.0
01/04:30pm 14.1 9.4 6.2 59 3.8 S 20 30 11 16 1025.5 1025.7 0.0
01/04:00pm 14.6 9.5 5.9 56 4.2 S 22 35 12 19 1025.3 1025.5 0.0
01/03:30pm 15.0 9.5 5.8 54 4.4 S 24 32 13 17 1025.0 1025.2 0.0
01/03:00pm 15.3 10.2 5.8 53 4.5 S 22 33 12 18 1025.0 1025.2 0.0
01/02:30pm 15.3 9.8 6.1 54 4.5 S 24 37 13 20 1025.2 1025.4 0.0
01/02:00pm 15.4 10.8 6.7 56 4.2 S 20 33 11 18 1025.5 1025.7 0.0
01/01:30pm 14.8 9.8 6.4 57 4.1 S 22 33 12 18 1025.9 1026.1 0.0
01/01:00pm 14.6 10.0 6.4 58 4.0 S 20 28 11 15 1025.8 1026.0 0.0
01/12:30pm 14.4 9.5 6.7 60 3.8 S 22 30 12 16 1025.9 1026.1 0.0
01/12:00pm 14.0 9.6 6.6 61 3.6 S 19 30 10 16 1026.5 1026.7 0.0
01/11:30am 13.4 9.1 7.2 66 3.0 S 19 28 10 15 1027.0 1027.1 0.0
01/11:00am 12.4 8.1 6.9 69 2.6 S 19 26 10 14 1027.2 1027.3 0.0
01/10:30am 10.8 6.9 6.9 77 1.9 SSW 17 24 9 13 1027.3 1027.4 0.0
01/10:00am 8.8 5.3 7.4 91 0.7 SSW 15 22 8 12 1027.5 1027.6 0.0
01/09:30am 6.1 3.1 6.0 99 0.0 SW 11 15 6 8 1027.2 1027.3 0.0
01/09:00am 4.1 0.7 4.0 99 0.0 SSW 11 15 6 8 1026.5 1026.6 0.0
01/08:30am 3.1 -0.9 3.0 99 0.0 SW 13 17 7 9 1026.9 1027.0 0.0
01/08:00am 2.7 -1.0 2.6 99 0.0 SSW 11 17 6 9 1026.0 1026.1 0.0
01/07:30am 2.3 -1.4 2.2 99 0.0 SSW 11 15 6 8 1025.7 1025.8 0.0
01/07:00am 2.5 -1.2 2.4 99 0.0 SW 11 15 6 8 1026.0 1026.1 0.0
01/06:30am 2.5 -0.8 2.4 99 0.0 SW 9 17 5 9 1026.0 1026.1 0.0
01/06:00am 2.5 -1.6 2.2 98 0.1 SW 13 15 7 8 1025.4 1025.5 0.0
01/05:30am 2.8 -1.3 2.5 98 0.1 SW 13 15 7 8 1025.2 1025.3 0.0
01/05:00am 3.2 -0.8 2.9 98 0.1 SW 13 17 7 9 1025.2 1025.3 0.0
01/04:30am 3.1 -0.9 2.8 98 0.1 SW 13 17 7 9 1025.0 1025.1 0.0
01/04:00am 3.1 -0.5 2.8 98 0.1 SW 11 15 6 8 1025.0 1025.1 0.0
01/03:30am 3.3 0.5 2.9 97 0.2 S 7 9 4 5 1024.9 1025.0 0.0
01/03:00am 3.3 -0.3 2.9 97 0.2 SW 11 15 6 8 1024.9 1025.0 0.0
01/02:30am 3.4 -0.2 2.7 95 0.3 SW 11 13 6 7 1024.8 1024.9 0.0
01/02:00am 3.8 0.5 2.6 92 0.5 SW 9 13 5 7 1024.7 1024.8 0.0
01/01:30am 4.5 1.0 3.5 93 0.4 SSW 11 15 6 8 1024.7 1024.8 0.0
01/01:00am 3.9 0.3 2.7 92 0.5 SSW 11 17 6 9 1024.9 1025.0 0.0
01/12:30am 3.9 0.2 2.6 91 0.5 SW 11 15 6 8 1024.8 1024.9 0.0
01/12:00am 4.1 0.0 2.5 89 0.6 SW 13 15 7 8 1024.8 1024.9 0.0
 
Date/Time
EST
Temp
°C
App
Temp
°C
Dew
Point
°C
Rel
Hum
%
Delta-T
°C
Wind Press
QNH
hPa
Press
MSL
hPa
Rain since
9am
mm
Dir  Spd
km/h
Gust
km/h
Spd
kts
Gust
kts
30/11:30pm 4.6 0.6 2.6 87 0.8 SSW 13 19 7 10 1025.0 1025.1 0.0
30/11:00pm 4.8 0.7 2.5 85 0.9 SW 13 15 7 8 1025.0 1025.1 0.0
30/10:30pm 5.5 1.5 2.8 83 1.1 SW 13 17 7 9 1024.8 1024.9 0.0
30/10:00pm 5.5 2.2 2.5 81 1.2 SW 9 11 5 6 1024.6 1024.7 0.0
30/09:30pm 5.9 2.3 2.7 80 1.3 SSW 11 13 6 7 1024.5 1024.6 0.0
30/09:00pm 6.0 2.3 2.3 77 1.5 SW 11 13 6 7 1024.2 1024.3 0.0
30/08:30pm 7.2 3.9 2.5 72 2.0 SSW 9 11 5 6 1024.0 1024.1 0.0
30/08:00pm 7.6 4.0 2.7 71 2.0 SSW 11 13 6 7 1023.8 1023.9 0.0
30/07:30pm 8.1 4.8 2.4 67 2.4 SW 9 11 5 6 1023.6 1023.7 0.0
30/07:00pm 9.9 6.3 3.0 62 3.0 S 11 13 6 7 1023.2 1023.3 0.0
30/06:30pm 9.6 6.3 2.7 62 3.0 SSW 9 11 5 6 1022.9 1023.0 0.0
30/06:00pm 10.5 7.3 2.8 59 3.3 SSW 9 9 5 5 1022.7 1022.8 0.0
30/05:30pm 12.1 8.9 3.1 54 4.0 SSW 9 11 5 6 1022.3 1022.4 0.0
30/05:00pm 14.1 10.9 3.3 48 4.9 SSW 9 13 5 7 1022.1 1022.2 0.0
30/04:30pm 15.2 11.7 3.4 45 5.4 SSW 11 15 6 8 1022.0 1022.1 0.0
30/04:00pm 15.6 13.0 4.3 47 5.3 SSW 7 13 4 7 1021.9 1022.0 0.0
30/03:30pm 16.1 12.8 4.8 47 5.4 SW 11 15 6 8 1021.9 1022.0 0.0
30/03:00pm 16.5 13.3 4.9 46 5.5 SW 11 17 6 9 1021.9 1022.0 0.0
30/02:30pm 16.0 12.8 5.3 49 5.1 SSW 11 17 6 9 1021.7 1021.8 0.0
30/02:00pm 16.2 13.1 5.5 49 5.1 S 11 17 6 9 1021.7 1021.8 0.0
30/01:30pm 16.6 13.5 5.6 48 5.3 SSW 11 15 6 8 1021.9 1022.0 0.0
30/01:00pm 15.9 13.2 5.8 51 4.9 SW 9 15 5 8 1022.2 1022.3 0.0
30/12:30pm 15.5 12.6 4.6 48 5.1 SW 9 15 5 8 1022.4 1022.5 0.0
30/12:00pm 15.2 12.4 5.1 51 4.8 SSE 9 13 5 7 1022.8 1022.9 0.0
30/11:30am 15.0 12.2 5.0 51 4.7 SW 9 13 5 7 1023.2 1023.3 0.0
30/11:00am 14.5 12.1 5.3 54 4.3 SSE 7 17 4 9 1023.2 1023.3 0.0
30/10:30am 13.4 11.4 6.3 62 3.4 SW 6 9 3 5 1023.5 1023.6 0.0
30/10:00am 12.1 10.2 6.6 69 2.6 S 6 9 3 5 1023.4 1023.5 0.0
30/09:30am 9.7 9.0 7.1 84 1.2 CALM 0 0 0 0 1023.3 1023.4 0.0
30/09:00am 8.9 8.4 7.7 92 0.6 CALM 0 4 0 2 1023.1 1023.2 0.0
30/08:30am 6.8 4.8 6.4 97 0.2 SSW 6 6 3 3 1022.8 1022.9 0.0
30/08:00am 6.6 4.9 6.0 96 0.3 WSW 4 9 2 5 1022.8 1022.9 0.0
30/07:30am 6.8 4.8 6.2 96 0.3 WNW 6 7 3 4 1022.8 1022.9 0.0
30/07:00am 6.7 4.1 6.3 97 0.2 NNE 9 9 5 5 1022.1 1022.2 0.0
30/06:30am 6.7 4.1 6.3 97 0.2 ENE 9 11 5 6 1022.0 1022.1 0.0
30/06:00am 6.7 5.4 6.0 95 0.3 SW 2 6 1 3 1021.8 1021.9 0.0
30/05:30am 6.8 4.8 6.1 95 0.3 WSW 6 7 3 4 1021.7 1021.8 0.0
30/05:00am 6.9 5.2 6.0 94 0.4 WSW 4 6 2 3 1021.2 1021.3 0.0
30/04:30am 6.8 4.8 6.1 95 0.3 WSW 6 11 3 6 1021.5 1021.6 0.0
30/04:00am 6.8 4.5 5.9 94 0.4 WSW 7 9 4 5 1021.3 1021.4 0.0
30/03:30am 6.9 4.7 6.0 94 0.4 SW 7 9 4 5 1021.3 1021.4 0.0
30/03:00am 7.0 4.8 6.3 95 0.3 WSW 7 9 4 5 1021.3 1021.4 0.0
30/02:30am 6.8 5.1 6.1 95 0.3 SW 4 7 2 4 1021.3 1021.4 0.0
30/02:00am 6.9 4.8 5.8 93 0.5 SE 6 7 3 4 1021.2 1021.3 0.0
30/01:30am 7.1 5.0 5.9 92 0.5 ESE 6 7 3 4 1021.1 1021.2 0.0
30/01:00am 7.0 4.7 5.8 92 0.5 ENE 7 9 4 5 1021.0 1021.1 0.0
30/12:30am 7.6 5.6 6.2 91 0.6 ENE 6 9 3 5 1021.2 1021.3 0.0
30/12:00am 7.9 5.9 6.4 90 0.7 WNW 6 7 3 4 1021.8 1021.9 0.0
 
Date/Time
EST
Temp
°C
App
Temp
°C
Dew
Point
°C
Rel
Hum
%
Delta-T
°C
Wind Press
QNH
hPa
Press
MSL
hPa
Rain since
9am
mm
Dir  Spd
km/h
Gust
km/h
Spd
kts
Gust
kts
29/11:30pm 8.0 6.0 6.1 88 0.9 W 6 6 3 3 1021.8 1021.9 0.0
29/11:00pm 8.6 6.1 6.6 87 0.9 NE 9 9 5 5 1021.6 1021.7 0.0
29/10:30pm 8.4 5.9 6.5 88 0.9 ENE 9 11 5 6 1021.3 1021.4 0.0
29/10:00pm 8.3 5.8 6.4 88 0.9 ENE 9 11 5 6 1021.3 1021.4 0.0
29/09:30pm 8.5 6.3 6.3 86 1.0 NE 7 9 4 5 1021.9 1022.0 0.0
29/09:00pm 8.4 6.7 5.9 84 1.1 NE 4 7 2 4 1022.4 1022.5 0.0
29/08:30pm 8.8 6.2 6.3 84 1.2 NE 9 11 5 6 1022.3 1022.4 0.0
29/08:00pm 8.7 6.5 6.2 84 1.1 NNE 7 9 4 5 1022.4 1022.5 0.0
29/07:30pm 9.2 8.3 5.9 80 1.5 CALM 0 0 0 0 1022.3 1022.4 0.0
29/07:00pm 9.6 8.3 6.1 79 1.6 ENE 2 7 1 4 1022.0 1022.1 0.0
29/06:30pm 10.3 7.8 6.5 77 1.8 N 9 9 5 5 1022.1 1022.2 0.0
29/06:00pm 10.1 8.8 6.1 76 1.9 NNE 2 6 1 3 1021.6 1021.7 0.0
29/05:30pm 10.5 8.6 6.5 76 1.9 NE 6 9 3 5 1021.7 1021.8 0.0
29/05:00pm 11.8 10.9 6.1 68 2.7 CALM 0 0 0 0 1021.6 1021.7 0.0
29/04:30pm 13.5 12.8 7.1 65 3.1 CALM 0 4 0 2 1021.5 1021.6 0.0
29/04:00pm 12.7 10.8 6.7 67 2.9 WNW 6 7 3 4 1021.8 1021.9 0.0
29/03:30pm 12.7 11.5 6.5 66 3.0 NNW 2 6 1 3 1021.9 1022.0 0.0
29/03:00pm 12.6 10.4 6.4 66 2.9 NNW 7 9 4 5 1022.1 1022.2 0.0
29/02:30pm 12.8 10.2 6.2 64 3.1 NNW 9 13 5 7 1022.5 1022.6 0.0
29/02:00pm 12.8 9.7 5.7 62 3.3 NW 11 15 6 8 1022.7 1022.8 0.0
29/01:30pm 13.6 10.3 6.2 61 3.5 WNW 13 20 7 11 1022.9 1023.0 0.0
29/01:00pm 12.0 8.5 5.6 65 3.0 NW 13 17 7 9 1023.5 1023.6 0.0
29/12:30pm 11.2 8.4 5.1 66 2.8 NNW 9 15 5 8 1024.1 1024.2 0.0
29/12:00pm 10.8 8.4 5.1 68 2.6 NNW 7 11 4 6 1024.6 1024.7 0.0
29/11:30am 10.0 7.4 4.4 68 2.5 NNW 7 11 4 6 1024.8 1024.9 0.0
29/11:00am 9.9 7.0 4.5 69 2.4 N 9 13 5 7 1025.1 1025.2 0.0
29/10:30am 8.4 4.9 3.3 70 2.2 NNE 11 13 6 7 1025.1 1025.2 0.0
29/10:00am 7.5 4.3 2.8 72 2.0 NNE 9 11 5 6 1025.3 1025.4 0.0
29/09:30am 6.3 3.0 2.4 76 1.6 NE 9 11 5 6 1025.4 1025.5 0.0
29/09:00am 5.3 2.0 2.5 82 1.1 ENE 9 11 5 6 1025.4 1025.5 0.0
29/08:30am 3.5 0.5 2.0 90 0.6 ENE 7 9 4 5 1025.4 1025.5 0.0
29/08:00am 1.5 -2.1 0.3 92 0.4 ESE 9 9 5 5 1025.3 1025.4 0.0
29/07:30am 0.9 -2.9 -0.5 90 0.5 SSW 9 9 5 5 1025.4 1025.5 0.0
29/07:00am 1.0 -1.9 -0.8 88 0.6 SW 4 9 2 5 1025.0 1025.1 0.0
29/06:30am 1.4 -1.5 -0.8 85 0.8 SW 4 7 2 4 1025.0 1025.1 0.0
29/06:00am 2.5 -1.3 -0.4 81 1.1 ENE 9 11 5 6 1024.7 1024.8 0.0
29/05:30am 3.0 -0.3 -0.1 80 1.2 NE 7 9 4 5 1024.8 1024.9 0.0
29/05:00am 3.1 -0.2 -0.2 79 1.2 NE 7 9 4 5 1024.5 1024.6 0.0
29/04:30am 3.5 -0.2 0.2 79 1.2 ENE 9 11 5 6 1024.7 1024.8 0.0
29/04:00am 3.9 -0.1 0.4 78 1.3 ENE 11 13 6 7 1024.9 1025.0 0.0
29/03:30am 3.9 -0.1 0.2 77 1.4 NE 11 13 6 7 1025.0 1025.1 0.0
29/03:00am 4.1 0.5 0.3 76 1.4 NE 9 11 5 6 1025.4 1025.5 0.0
29/02:30am 3.7 -0.3 0.2 78 1.3 NE 11 13 6 7 1025.6 1025.7 0.0
29/02:00am 4.2 0.6 0.4 76 1.4 NE 9 13 5 7 1025.7 1025.8 0.0
29/01:30am 4.3 0.3 0.6 77 1.4 ENE 11 13 6 7 1025.7 1025.8 0.0
29/01:00am 4.1 0.2 1.0 80 1.2 ENE 11 13 6 7 1025.6 1025.7 0.0
29/12:30am 3.7 0.1 0.8 81 1.1 ENE 9 11 5 6 1025.8 1025.9 0.0
29/12:00am 3.9 0.3 0.8 80 1.2 E 9 11 5 6 1026.1 1026.2 0.0
 
Date/Time
EST
Temp
°C
App
Temp
°C
Dew
Point
°C
Rel
Hum
%
Delta-T
°C
Wind Press
QNH
hPa
Press
MSL
hPa
Rain since
9am
mm
Dir  Spd
km/h
Gust
km/h
Spd
kts
Gust
kts
28/11:30pm 4.0 0.0 0.7 79 1.3 E 11 13 6 7 1026.5 1026.6 0.0
28/11:00pm 4.4 0.5 1.1 79 1.3 ENE 11 15 6 8 1026.9 1027.0 0.0
28/10:30pm 4.7 0.0 1.0 77 1.4 E 15 17 8 9 1027.0 1027.1 0.0
28/10:00pm 5.6 1.7 1.2 73 1.7 E 11 13 6 7 1027.5 1027.6 0.0
28/09:30pm 6.2 2.0 1.5 72 1.9 E 13 15 7 8 1027.3 1027.4 0.0
28/09:00pm 6.1 2.5 0.9 69 2.0 ESE 9 11 5 6 1027.5 1027.6 0.0
28/08:30pm 6.8 2.9 0.9 66 2.4 ESE 11 13 6 7 1027.5 1027.6 0.0

Other formats

Comma delimited format used in spreadsheet applications
http://www.bom.gov.au/fwo/IDN60801/IDN60801.95697.axf

JavaScript Object Notation format (JSON) in row-major order
http://www.bom.gov.au/fwo/IDN60801/IDN60801.95697.json

Data quality

Most of these data are generated automatically and are frequently updated. Quality checks on data are not normally performed. It is possible for incorrect values to appear. Refer to information at About Latest Weather Observations and please check the disclaimer before using these data.